createdAt,value
2018-10-21T00:00:03.021Z,101327.52
2018-10-21T00:02:30.838Z,101327.97
2018-10-21T00:04:58.440Z,101318.44
2018-10-21T00:07:26.274Z,101320.59
2018-10-21T00:09:53.992Z,101321.43
2018-10-21T00:12:21.721Z,101321.88
2018-10-21T00:14:49.456Z,101320.55
2018-10-21T00:17:17.176Z,101308.42
2018-10-21T00:19:44.897Z,101295.44
2018-10-21T00:22:12.599Z,101286.81
2018-10-21T00:24:40.303Z,101291.16
2018-10-21T00:27:08.142Z,101279.89
2018-10-21T00:29:35.803Z,101278.63
2018-10-21T00:32:03.577Z,101277.36
2018-10-21T00:34:31.300Z,101270.84
2018-10-21T00:36:59.064Z,101255.70
2018-10-21T00:39:26.765Z,101254.84
2018-10-21T00:41:54.528Z,101260.95
2018-10-21T00:44:22.322Z,101261.83
2018-10-21T00:46:50.026Z,101262.72
2018-10-21T00:49:17.729Z,101260.23
2018-10-21T00:51:45.452Z,101267.24
2018-10-21T00:54:13.206Z,101269.90
2018-10-21T00:56:41.101Z,101261.23
2018-10-21T00:59:09.545Z,101258.70
2018-10-21T01:01:37.277Z,101266.12
2018-10-21T01:04:05.491Z,101259.63
2018-10-21T01:06:33.467Z,101251.84
2018-10-21T01:09:01.673Z,101241.42
2018-10-21T01:11:29.428Z,101227.13
2018-10-21T01:13:57.137Z,101231.46
2018-10-21T01:16:24.976Z,101223.20
2018-10-21T01:18:52.785Z,101213.20
2018-10-21T01:21:20.502Z,101197.11
2018-10-21T01:23:48.325Z,101187.11
2018-10-21T01:26:16.050Z,101172.31
2018-10-21T01:28:43.806Z,101160.13
2018-10-21T01:31:11.550Z,101153.13
2018-10-21T01:33:39.293Z,101145.67
2018-10-21T01:36:07.086Z,101140.44
2018-10-21T01:38:34.881Z,101126.89
2018-10-21T01:41:02.592Z,101112.88
2018-10-21T01:43:31.549Z,101112.02
2018-10-21T01:45:59.720Z,101122.88
2018-10-21T01:48:28.622Z,101125.42
2018-10-21T01:50:56.446Z,101140.66
2018-10-21T01:53:24.588Z,101138.52
2018-10-21T01:55:52.356Z,101133.25
2018-10-21T01:58:20.053Z,101108.77
2018-10-21T02:00:47.868Z,101090.68
2018-10-21T02:03:15.979Z,101094.98
2018-10-21T02:05:44.564Z,101083.21
2018-10-21T02:08:12.345Z,101064.81
2018-10-21T02:10:40.157Z,101062.47
2018-10-21T02:13:07.963Z,101058.45
2018-10-21T02:15:35.685Z,101057.20
2018-10-21T02:18:03.552Z,101045.97
2018-10-21T02:20:31.300Z,101043.34
2018-10-21T02:22:59.219Z,101029.86
2018-10-21T02:25:26.958Z,101028.02
2018-10-21T02:27:54.720Z,101022.75
2018-10-21T02:30:24.631Z,101019.73
2018-10-21T02:32:52.961Z,101017.11
2018-10-21T02:35:21.136Z,101015.70
2018-10-21T02:37:49.444Z,101004.64
2018-10-21T02:41:42.878Z,101021.54
2018-10-21T02:44:15.828Z,101018.88
2018-10-21T02:46:44.223Z,101006.14
2018-10-21T02:49:12.742Z,101017.41
2018-10-21T02:51:40.480Z,101013.39
2018-10-21T02:54:08.709Z,101012.77
2018-10-21T02:56:36.448Z,101015.26
2018-10-21T02:59:04.646Z,101015.16
2018-10-21T03:01:32.419Z,101018.27
2018-10-21T03:04:00.156Z,101018.47
2018-10-21T03:06:27.953Z,101014.92
2018-10-21T03:08:55.713Z,101012.80
2018-10-21T03:11:23.464Z,101000.80
2018-10-21T03:13:51.152Z,100991.41
2018-10-21T03:16:18.928Z,100980.59
2018-10-21T03:18:46.756Z,100979.20
2018-10-21T03:21:14.632Z,100989.05
2018-10-21T03:23:42.300Z,100979.66
2018-10-21T03:26:10.065Z,100977.06
2018-10-21T03:28:37.819Z,100965.48
2018-10-21T03:31:05.561Z,100959.73
2018-10-21T03:33:33.461Z,100954.42
2018-10-21T03:36:01.174Z,100958.77
2018-10-21T03:38:28.993Z,100950.58
2018-10-21T03:40:56.825Z,100925.41
2018-10-21T03:43:24.600Z,100934.28
2018-10-21T03:45:52.419Z,100926.69
2018-10-21T03:48:20.173Z,100923.41
2018-10-21T03:50:47.923Z,100915.51
2018-10-21T03:53:15.664Z,100908.66
2018-10-21T03:55:43.697Z,100865.30
2018-10-21T03:58:11.539Z,100895.40
2018-10-21T04:00:39.357Z,100902.63
2018-10-21T04:03:07.493Z,100881.41
2018-10-21T04:05:35.694Z,100879.86
2018-10-21T04:08:03.700Z,100868.70
2018-10-21T04:10:31.504Z,100871.45
2018-10-21T04:12:59.598Z,100856.79
2018-10-21T04:15:27.397Z,100857.48
2018-10-21T04:17:55.565Z,100855.05
2018-10-21T04:20:23.385Z,100859.00
2018-10-21T04:22:53.228Z,100866.16
2018-10-21T04:25:21.764Z,100878.78
2018-10-21T04:27:50.407Z,100877.74
2018-10-21T04:30:22.065Z,100865.39
2018-10-21T04:33:03.741Z,100862.30
2018-10-21T04:35:31.967Z,100869.55
2018-10-21T04:40:22.397Z,100866.41
2018-10-21T04:42:50.735Z,100846.89
2018-10-21T04:45:19.886Z,100828.72
2018-10-21T04:47:47.656Z,100831.77
2018-10-21T04:50:15.387Z,100829.55
2018-10-21T04:52:43.195Z,100840.38
2018-10-21T04:55:15.714Z,100824.03
2018-10-21T04:57:44.864Z,100831.06
2018-10-21T05:00:14.742Z,100824.45
2018-10-21T05:02:42.452Z,100818.22
2018-10-21T05:05:11.359Z,100814.14
2018-10-21T05:07:39.487Z,100808.77
2018-10-21T05:10:17.925Z,100790.23
2018-10-21T05:12:45.697Z,100788.81
2018-10-21T05:15:13.519Z,100776.92
2018-10-21T05:17:41.424Z,100781.23
2018-10-21T05:20:09.576Z,100778.45
2018-10-21T05:22:37.293Z,100780.99
2018-10-21T05:25:05.559Z,100776.72
2018-10-21T05:27:33.296Z,100768.37
2018-10-21T05:30:01.035Z,100762.37
2018-10-21T05:32:28.750Z,100750.86
2018-10-21T05:34:56.464Z,100750.86
2018-10-21T05:37:24.294Z,100739.87
2018-10-21T05:39:52.091Z,100752.04
2018-10-21T05:42:19.801Z,100747.22
2018-10-21T05:44:47.529Z,100739.38
2018-10-21T05:47:15.339Z,100743.23
2018-10-21T05:49:43.020Z,100741.25
2018-10-21T05:52:10.783Z,100738.55
2018-10-21T05:54:42.633Z,100736.84
2018-10-21T05:57:10.425Z,100744.20
2018-10-21T05:59:38.209Z,100744.75
2018-10-21T06:02:05.992Z,100739.48
2018-10-21T06:04:33.802Z,100741.18
2018-10-21T06:07:01.545Z,100755.64
2018-10-21T06:09:29.298Z,100747.77
2018-10-21T06:11:57.069Z,100745.66
2018-10-21T06:14:24.792Z,100764.11
2018-10-21T06:16:56.966Z,100754.81
2018-10-21T06:19:33.309Z,100754.02
2018-10-21T06:22:01.115Z,100756.23
2018-10-21T06:24:28.857Z,100753.56
2018-10-21T06:26:56.599Z,100755.34
2018-10-21T06:29:24.332Z,100754.09
2018-10-21T06:31:52.056Z,100758.08
2018-10-21T06:34:19.792Z,100749.30
2018-10-21T06:36:47.589Z,100729.59
2018-10-21T06:39:15.295Z,100723.91
2018-10-21T06:41:43.036Z,100704.14
2018-10-21T06:44:10.809Z,100691.37
2018-10-21T06:46:38.684Z,100681.73
2018-10-21T06:49:06.474Z,100681.33
2018-10-21T06:51:34.245Z,100681.84
2018-10-21T06:54:01.972Z,100695.06
2018-10-21T06:56:29.750Z,100687.23
2018-10-21T06:58:58.056Z,100677.48
2018-10-21T07:01:25.840Z,100664.27
2018-10-21T07:03:53.596Z,100646.27
2018-10-21T07:06:25.500Z,100633.08
2018-10-21T07:08:54.513Z,100618.59
2018-10-21T07:11:22.244Z,100621.64
2018-10-21T07:13:49.998Z,100610.68
2018-10-21T07:16:17.867Z,100619.84
2018-10-21T07:18:46.544Z,100631.25
2018-10-21T07:21:14.394Z,100609.70
2018-10-21T07:23:42.196Z,100609.66
2018-10-21T07:26:10.001Z,100607.41
2018-10-21T07:28:37.873Z,100590.69
2018-10-21T07:31:05.676Z,100593.21
2018-10-21T07:33:33.428Z,100575.55
2018-10-21T07:36:01.164Z,100562.78
2018-10-21T07:38:28.932Z,100545.16
2018-10-21T07:40:56.696Z,100547.22
2018-10-21T07:43:24.469Z,100563.42
2018-10-21T07:45:52.228Z,100591.92
2018-10-21T07:48:20.036Z,100614.27
2018-10-21T07:50:47.828Z,100625.11
2018-10-21T07:53:15.612Z,100654.80
2018-10-21T07:55:43.397Z,100663.98
2018-10-21T07:58:11.319Z,100664.33
2018-10-21T08:00:39.032Z,100662.26
2018-10-21T08:03:06.994Z,100666.78
2018-10-21T08:05:45.885Z,100661.13
2018-10-21T08:08:15.296Z,100669.59
2018-10-21T08:10:43.089Z,100658.30
2018-10-21T08:13:11.859Z,100660.86
2018-10-21T08:15:40.188Z,100645.11
2018-10-21T08:18:08.829Z,100647.33
2018-10-21T08:20:37.110Z,100650.50
2018-10-21T08:23:05.421Z,100670.38
2018-10-21T08:25:33.134Z,100630.37
2018-10-21T08:28:00.896Z,100659.08
2018-10-21T08:30:28.673Z,100646.28
2018-10-21T08:32:56.485Z,100655.02
2018-10-21T08:35:24.327Z,100662.85
2018-10-21T08:37:52.517Z,100642.28
2018-10-21T08:40:20.240Z,100644.28
2018-10-21T08:42:48.008Z,100640.14
2018-10-21T08:45:15.744Z,100621.57
2018-10-21T08:47:43.476Z,100632.91
2018-10-21T08:50:12.199Z,100634.75
2018-10-21T08:52:39.919Z,100635.70
2018-10-21T08:55:08.272Z,100617.66
2018-10-21T08:57:36.020Z,100607.63
2018-10-21T09:00:04.079Z,100621.69
2018-10-21T09:02:31.843Z,100616.75
2018-10-21T09:04:59.564Z,100623.27
2018-10-21T09:07:27.312Z,100624.88
2018-10-21T09:09:55.105Z,100621.56
2018-10-21T09:12:22.810Z,100618.42
2018-10-21T09:14:50.569Z,100619.17
2018-10-21T09:17:18.319Z,100622.55
2018-10-21T09:19:46.051Z,100608.95
2018-10-21T09:22:13.800Z,100608.09
2018-10-21T09:24:41.540Z,100601.04
2018-10-21T09:27:09.308Z,100605.45
2018-10-21T09:29:37.020Z,100604.59
2018-10-21T09:32:04.775Z,100593.58
2018-10-21T09:34:32.524Z,100589.05
2018-10-21T09:37:00.297Z,100576.05
2018-10-21T09:39:28.059Z,100578.05
2018-10-21T09:41:55.804Z,100547.78
2018-10-21T09:44:23.538Z,100548.16
2018-10-21T09:46:51.280Z,100544.40
2018-10-21T09:49:19.076Z,100553.27
2018-10-21T09:51:46.970Z,100551.16
2018-10-21T09:54:14.612Z,100553.67
2018-10-21T09:56:42.313Z,100573.05
2018-10-21T09:59:10.028Z,100570.90
2018-10-21T10:01:43.482Z,100561.47
2018-10-21T10:04:11.210Z,100567.45
2018-10-21T10:06:39.161Z,100566.91
2018-10-21T10:09:11.138Z,100540.77
2018-10-21T10:11:38.891Z,100533.01
2018-10-21T10:14:06.668Z,100535.31
2018-10-21T10:16:34.473Z,100532.09
2018-10-21T10:19:02.403Z,100534.09
2018-10-21T10:21:30.105Z,100535.20
2018-10-21T10:23:57.926Z,100536.48
2018-10-21T10:26:25.720Z,100529.29
2018-10-21T10:28:53.458Z,100518.64
2018-10-21T10:31:21.186Z,100510.72
2018-10-21T10:33:48.993Z,100510.61
2018-10-21T10:36:16.917Z,100507.97
2018-10-21T10:38:44.472Z,100511.39
2018-10-21T10:41:12.180Z,100510.85
2018-10-21T10:43:40.539Z,100509.30
2018-10-21T10:46:08.321Z,100512.92
2018-10-21T10:48:36.047Z,100511.82
2018-10-21T10:51:03.825Z,100522.39
2018-10-21T10:53:31.679Z,100518.20
2018-10-21T10:55:59.447Z,100527.85
2018-10-21T10:58:27.169Z,100523.48
2018-10-21T11:00:54.926Z,100525.15
2018-10-21T11:03:22.679Z,100520.23
2018-10-21T11:05:50.420Z,100514.95
2018-10-21T11:08:18.146Z,100515.41
2018-10-21T11:10:45.856Z,100506.89
2018-10-21T11:13:13.642Z,100511.06
2018-10-21T11:15:41.368Z,100514.77
2018-10-21T11:18:09.097Z,100511.86
2018-10-21T11:20:36.825Z,100512.77
2018-10-21T11:23:04.645Z,100514.22
2018-10-21T11:25:32.397Z,100511.08
2018-10-21T11:28:00.176Z,100513.84
2018-10-21T11:30:27.955Z,100499.38
2018-10-21T11:32:55.724Z,100494.95
2018-10-21T11:35:23.465Z,100461.08
2018-10-21T11:37:51.208Z,100490.00
2018-10-21T11:40:19.113Z,100490.14
2018-10-21T11:42:46.838Z,100502.70
2018-10-21T11:45:14.580Z,100480.34
2018-10-21T11:47:42.328Z,100483.80
2018-10-21T11:50:10.109Z,100488.77
2018-10-21T11:52:37.988Z,100485.41
2018-10-21T11:55:06.890Z,100486.83
2018-10-21T11:57:34.584Z,100477.58
2018-10-21T12:00:02.455Z,100476.34
2018-10-21T12:02:30.289Z,100474.34
2018-10-21T12:04:58.028Z,100475.75
2018-10-21T12:07:25.831Z,100443.77
2018-10-21T12:09:55.378Z,100431.34
2018-10-21T12:12:23.145Z,100433.20
2018-10-21T12:14:51.544Z,100450.70
2018-10-21T12:17:19.302Z,100450.65
2018-10-21T12:19:47.085Z,100441.00
2018-10-21T12:22:14.928Z,100430.89
2018-10-21T12:24:42.564Z,100415.90
2018-10-21T12:27:10.319Z,100425.95
2018-10-21T12:29:38.038Z,100422.83
2018-10-21T12:32:05.818Z,100416.58
2018-10-21T12:34:33.577Z,100411.67
2018-10-21T12:37:01.417Z,100404.75
2018-10-21T12:39:29.165Z,100413.13
2018-10-21T12:41:56.918Z,100401.70
2018-10-21T12:44:24.648Z,100407.20
2018-10-21T12:46:52.420Z,100404.75
2018-10-21T12:49:20.145Z,100399.70
2018-10-21T12:51:47.877Z,100400.16
2018-10-21T12:54:15.671Z,100395.84
2018-10-21T12:56:43.341Z,100401.34
2018-10-21T12:59:11.146Z,100409.86
2018-10-21T13:01:38.986Z,100388.41
2018-10-21T13:04:06.789Z,100383.27
2018-10-21T13:06:34.513Z,100374.85
2018-10-21T13:09:02.297Z,100384.69
2018-10-21T13:11:30.025Z,100389.27
2018-10-21T13:13:57.779Z,100391.10
2018-10-21T13:16:25.503Z,100392.50
2018-10-21T13:18:53.250Z,100388.14
2018-10-21T13:21:21.027Z,100393.95
2018-10-21T13:23:48.840Z,100383.58
2018-10-21T13:26:16.555Z,100381.94
2018-10-21T13:28:44.381Z,100381.53
2018-10-21T13:31:12.196Z,100371.02
2018-10-21T13:33:39.866Z,100371.43
2018-10-21T13:36:07.659Z,100355.59
2018-10-21T13:38:35.377Z,100337.12
2018-10-21T13:41:03.233Z,100332.75
2018-10-21T13:43:31.053Z,100318.91
2018-10-21T13:45:58.852Z,100333.16
2018-10-21T13:48:26.527Z,100338.98
2018-10-21T13:50:54.275Z,100327.28
2018-10-21T13:53:22.036Z,100325.97
2018-10-21T13:55:49.812Z,100318.97
2018-10-21T13:58:17.672Z,100326.10
2018-10-21T14:00:45.454Z,100324.97
2018-10-21T14:03:13.144Z,100319.05
2018-10-21T14:05:40.879Z,100316.99
2018-10-21T14:08:08.646Z,100316.59
2018-10-21T14:10:36.345Z,100317.05
2018-10-21T14:13:04.530Z,100308.34
2018-10-21T14:15:32.280Z,100311.39
2018-10-21T14:18:00.030Z,100310.45
2018-10-21T14:20:27.752Z,100322.72
2018-10-21T14:22:55.469Z,100320.95
2018-10-21T14:25:23.378Z,100334.19
2018-10-21T14:27:51.085Z,100340.73
2018-10-21T14:30:18.884Z,100341.19
2018-10-21T14:32:46.632Z,100348.24
2018-10-21T14:35:14.950Z,100344.73
2018-10-21T14:37:42.704Z,100342.05
2018-10-21T14:40:12.227Z,100336.00
2018-10-21T14:42:40.219Z,100341.64
2018-10-21T14:45:09.395Z,100326.27
2018-10-21T14:47:37.614Z,100323.27
2018-10-21T14:50:05.504Z,100326.03
2018-10-21T14:52:33.245Z,100329.05
2018-10-21T14:55:00.980Z,100316.84
2018-10-21T14:57:28.839Z,100317.77
2018-10-21T14:59:56.611Z,100320.89
2018-10-21T15:02:24.360Z,100322.25
2018-10-21T15:04:52.102Z,100323.12
2018-10-21T15:07:19.843Z,100317.39
2018-10-21T15:09:47.649Z,100306.11
2018-10-21T15:12:15.445Z,100296.80
2018-10-21T15:14:43.175Z,100303.47
2018-10-21T15:17:10.939Z,100311.38
2018-10-21T15:19:38.705Z,100302.15
2018-10-21T15:22:06.548Z,100291.65
2018-10-21T15:24:34.381Z,100293.42
2018-10-21T15:27:02.128Z,100291.28
2018-10-21T15:29:29.909Z,100288.64
2018-10-21T15:31:57.630Z,100289.14
2018-10-21T15:34:25.407Z,100288.69
2018-10-21T15:36:53.173Z,100288.69
2018-10-21T15:39:20.943Z,100288.69
2018-10-21T15:41:48.700Z,100278.59
2018-10-21T15:44:16.545Z,100267.72
2018-10-21T15:46:44.305Z,100261.99
2018-10-21T15:49:12.049Z,100254.13
2018-10-21T15:51:39.887Z,100231.26
2018-10-21T15:54:07.760Z,100227.76
2018-10-21T15:56:35.539Z,100222.48
2018-10-21T15:59:03.309Z,100209.84
2018-10-21T16:01:31.157Z,100197.57
2018-10-21T16:03:58.897Z,100185.30
2018-10-21T16:06:26.668Z,100187.48
2018-10-21T16:08:54.591Z,100193.62
2018-10-21T16:11:22.378Z,100201.52
2018-10-21T16:13:50.103Z,100195.84
2018-10-21T16:16:18.003Z,100188.42
2018-10-21T16:18:45.775Z,100187.88
2018-10-21T16:21:13.554Z,100185.30
2018-10-21T16:23:41.446Z,100185.30
2018-10-21T16:26:09.303Z,100163.02
2018-10-21T16:28:37.023Z,100170.48
2018-10-21T16:31:04.989Z,100162.56
2018-10-21T16:33:32.724Z,100163.88
2018-10-21T16:36:00.516Z,100159.93
2018-10-21T16:38:28.366Z,100159.56
2018-10-21T16:40:56.122Z,100150.33
2018-10-21T16:43:23.848Z,100157.83
2018-10-21T16:45:51.600Z,100150.78
2018-10-21T16:48:19.375Z,100144.70
2018-10-21T16:50:47.143Z,100142.52
2018-10-21T16:53:14.929Z,100139.38
2018-10-21T16:55:42.728Z,100127.11
2018-10-21T16:58:10.471Z,100128.02
2018-10-21T17:00:38.398Z,100114.15
2018-10-21T17:03:06.122Z,100125.92
2018-10-21T17:05:33.812Z,100124.70
2018-10-21T17:08:01.580Z,100122.43
2018-10-21T17:10:29.647Z,100107.56
2018-10-21T17:12:57.176Z,100104.98
2018-10-21T17:15:24.940Z,100097.06
2018-10-21T17:17:52.665Z,100099.30
2018-10-21T17:20:20.389Z,100089.21
2018-10-21T17:22:48.128Z,100076.11
2018-10-21T17:25:16.031Z,100085.34
2018-10-21T17:27:43.930Z,100077.44
2018-10-21T17:30:14.258Z,100078.80
2018-10-21T17:32:42.288Z,100075.71
2018-10-21T17:35:10.429Z,100082.70
2018-10-21T17:37:38.666Z,100083.56
2018-10-21T17:40:07.409Z,100094.11
2018-10-21T17:42:35.212Z,100093.70
2018-10-21T17:45:03.032Z,100092.80
2018-10-21T17:47:30.748Z,100089.30
2018-10-21T17:49:58.552Z,100098.44
2018-10-21T17:52:26.514Z,100095.80
2018-10-21T17:54:54.285Z,100097.12
2018-10-21T17:57:22.049Z,100095.75
2018-10-21T17:59:49.792Z,100081.93
2018-10-21T18:02:17.600Z,100085.66
2018-10-21T18:04:45.361Z,100083.48
2018-10-21T18:07:13.132Z,100087.38
2018-10-21T18:09:40.872Z,100082.62
2018-10-21T18:12:08.657Z,100078.20
2018-10-21T18:14:36.424Z,100065.84
2018-10-21T18:17:04.460Z,100056.20
2018-10-21T18:19:32.220Z,100064.57
2018-10-21T18:22:00.047Z,100060.94
2018-10-21T18:24:27.810Z,100057.84
2018-10-21T18:26:55.565Z,100059.61
2018-10-21T18:29:23.375Z,100050.39
2018-10-21T18:31:51.149Z,100042.02
2018-10-21T18:34:18.881Z,100035.89
2018-10-21T18:36:46.667Z,100031.42
2018-10-21T18:39:14.376Z,100026.61
2018-10-21T18:41:42.155Z,100034.06
2018-10-21T18:44:10.017Z,100022.65
2018-10-21T18:46:37.731Z,100015.60
2018-10-21T18:49:05.573Z,100022.20
2018-10-21T18:51:33.395Z,100023.11
2018-10-21T18:54:01.124Z,100025.28
2018-10-21T18:56:28.916Z,100011.70
2018-10-21T18:58:56.684Z,99996.29
2018-10-21T19:01:24.476Z,99995.83
2018-10-21T19:03:52.284Z,99991.88
2018-10-21T19:06:20.064Z,99982.19
2018-10-21T19:08:47.856Z,99976.97
2018-10-21T19:11:15.735Z,99964.56
2018-10-21T19:13:43.467Z,99957.14
2018-10-21T19:16:11.299Z,99950.46
2018-10-21T19:18:39.032Z,99946.11
2018-10-21T19:21:06.744Z,99933.42
2018-10-21T19:23:34.476Z,99921.55
2018-10-21T19:26:02.265Z,99921.06
2018-10-21T19:28:30.042Z,99908.74
2018-10-21T19:30:57.872Z,99896.88
2018-10-21T19:33:25.571Z,99884.16
2018-10-21T19:35:53.324Z,99862.30
2018-10-21T19:38:21.077Z,99808.51
2018-10-21T19:40:48.827Z,99862.23
2018-10-21T19:43:16.732Z,99858.28
2018-10-21T19:45:44.452Z,99858.28
2018-10-21T19:48:12.188Z,99865.33
2018-10-21T19:50:39.956Z,99872.38
2018-10-21T19:53:07.728Z,99864.47
2018-10-21T19:55:35.473Z,99860.12
2018-10-21T19:58:03.295Z,99862.84
2018-10-21T20:00:31.039Z,99865.54
2018-10-21T20:02:58.780Z,99868.58
2018-10-21T20:05:26.546Z,99860.27
2018-10-21T20:07:54.247Z,99870.41
2018-10-21T20:10:22.065Z,99874.00
2018-10-21T20:12:49.763Z,99890.73
2018-10-21T20:15:17.511Z,99896.55
2018-10-21T20:17:45.260Z,99894.06
2018-10-21T20:20:13.181Z,99889.25
2018-10-21T20:22:40.920Z,99901.57
2018-10-21T20:25:09.551Z,99896.81
2018-10-21T20:27:37.348Z,99884.95
2018-10-21T20:30:06.362Z,99878.31
2018-10-21T20:32:34.149Z,99876.59
2018-10-21T20:35:01.841Z,99863.41
2018-10-21T20:37:29.643Z,99870.00
2018-10-21T20:39:57.406Z,99877.54
2018-10-21T20:42:25.149Z,99874.50
2018-10-21T20:44:52.909Z,99859.61
2018-10-21T20:47:20.714Z,99864.02
2018-10-21T20:49:48.475Z,99849.16
2018-10-21T20:52:16.327Z,99850.07
2018-10-21T20:54:47.376Z,99843.48
2018-10-21T20:57:15.220Z,99842.31
2018-10-21T20:59:44.090Z,99848.45
2018-10-21T21:02:13.129Z,99850.68
2018-10-21T21:04:40.885Z,99860.77
2018-10-21T21:07:09.262Z,99859.05
2018-10-21T21:09:37.485Z,99852.45
2018-10-21T21:12:05.337Z,99847.19
2018-10-21T21:14:33.481Z,99842.77
2018-10-21T21:17:01.565Z,99827.88
2018-10-21T21:19:29.305Z,99820.92
2018-10-21T21:21:57.045Z,99828.83
2018-10-21T21:24:24.944Z,99813.94
2018-10-21T21:26:52.689Z,99809.92
2018-10-21T21:29:20.457Z,99813.48
2018-10-21T21:31:48.211Z,99827.05
2018-10-21T21:34:16.501Z,99818.75
2018-10-21T21:36:44.318Z,99812.67
2018-10-21T21:39:13.404Z,99802.63
2018-10-21T21:41:42.317Z,99796.09
2018-10-21T21:44:10.024Z,99788.75
2018-10-21T21:46:38.366Z,99794.94
2018-10-21T21:49:07.031Z,99791.38
2018-10-21T21:51:34.782Z,99795.33
2018-10-21T21:54:02.625Z,99792.30
2018-10-21T21:56:30.485Z,99793.61
2018-10-21T21:58:58.253Z,99791.44
2018-10-21T22:01:26.089Z,99780.05
2018-10-21T22:03:53.902Z,99760.83
2018-10-21T22:06:21.719Z,99761.38
2018-10-21T22:08:49.443Z,99770.60
2018-10-21T22:11:17.455Z,99769.28
2018-10-21T22:13:45.228Z,99773.23
2018-10-21T22:16:13.017Z,99768.03
2018-10-21T22:18:40.769Z,99757.19
2018-10-21T22:21:08.493Z,99738.28
2018-10-21T22:23:36.230Z,99735.70
2018-10-21T22:26:04.058Z,99745.39
2018-10-21T22:28:31.832Z,99757.70
2018-10-21T22:30:59.584Z,99752.98
2018-10-21T22:33:27.301Z,99749.09
2018-10-21T22:35:55.071Z,99744.31
2018-10-21T22:38:22.793Z,99739.87
2018-10-21T22:40:50.531Z,99739.96
2018-10-21T22:43:18.277Z,99736.47
2018-10-21T22:45:45.985Z,99726.39
2018-10-21T22:48:14.056Z,99729.42
2018-10-21T22:50:41.812Z,99729.88
2018-10-21T22:53:09.502Z,99722.99
2018-10-21T22:55:37.216Z,99718.64
2018-10-21T22:58:05.343Z,99704.61
2018-10-21T23:00:33.181Z,99695.85
2018-10-21T23:03:00.934Z,99724.06
2018-10-21T23:05:28.701Z,99721.88
2018-10-21T23:07:56.408Z,99704.00
2018-10-21T23:10:24.127Z,99706.23
2018-10-21T23:12:51.851Z,99688.26
2018-10-21T23:15:19.697Z,99704.15
2018-10-21T23:17:47.432Z,99679.28
2018-10-21T23:20:15.156Z,99695.45
2018-10-21T23:22:42.912Z,99699.49
2018-10-21T23:25:10.698Z,99678.42
2018-10-21T23:27:38.448Z,99685.16
2018-10-21T23:30:07.096Z,99689.17
2018-10-21T23:32:34.770Z,99689.27
2018-10-21T23:35:02.517Z,99695.50
2018-10-21T23:37:30.276Z,99693.72
2018-10-21T23:39:58.012Z,99688.16
2018-10-21T23:42:25.822Z,99673.42
2018-10-21T23:44:53.551Z,99674.03
2018-10-21T23:47:21.286Z,99678.07
2018-10-21T23:49:49.071Z,99678.22
2018-10-21T23:52:16.849Z,99681.83
2018-10-21T23:54:44.564Z,99688.03
2018-10-21T23:57:12.282Z,99684.09
2018-10-21T23:59:40.012Z,99681.97
